sensor_id;sensor_type;location;lat;lon;timestamp;P1;durP1;ratioP1;P2;durP2;ratioP2
15096;SDS011;7649;52.084;7.478;2023-10-13T00:01:11;23.83;;;21.07;;
15096;SDS011;7649;52.084;7.478;2023-10-13T00:03:41;24.17;;;21.67;;
15096;SDS011;7649;52.084;7.478;2023-10-13T00:06:09;24.93;;;22.50;;
15096;SDS011;7649;52.084;7.478;2023-10-13T00:08:38;23.23;;;20.80;;
15096;SDS011;7649;52.084;7.478;2023-10-13T00:11:11;24.37;;;21.77;;
15096;SDS011;7649;52.084;7.478;2023-10-13T00:13:39;23.90;;;21.37;;
15096;SDS011;7649;52.084;7.478;2023-10-13T00:16:16;25.93;;;21.03;;
15096;SDS011;7649;52.084;7.478;2023-10-13T00:18:48;25.73;;;20.77;;
15096;SDS011;7649;52.084;7.478;2023-10-13T00:21:21;22.83;;;20.53;;
15096;SDS011;7649;52.084;7.478;2023-10-13T00:24:00;22.10;;;19.27;;
15096;SDS011;7649;52.084;7.478;2023-10-13T00:26:34;22.87;;;19.33;;
15096;SDS011;7649;52.084;7.478;2023-10-13T00:29:03;23.07;;;19.90;;
15096;SDS011;7649;52.084;7.478;2023-10-13T00:31:41;24.10;;;19.63;;
15096;SDS011;7649;52.084;7.478;2023-10-13T00:34:15;20.57;;;18.40;;
15096;SDS011;7649;52.084;7.478;2023-10-13T00:36:46;23.03;;;20.50;;
15096;SDS011;7649;52.084;7.478;2023-10-13T00:39:36;23.70;;;19.40;;
15096;SDS011;7649;52.084;7.478;2023-10-13T00:42:08;21.70;;;19.53;;
15096;SDS011;7649;52.084;7.478;2023-10-13T00:44:44;20.90;;;18.67;;
15096;SDS011;7649;52.084;7.478;2023-10-13T00:47:15;20.87;;;18.70;;
15096;SDS011;7649;52.084;7.478;2023-10-13T00:49:59;23.63;;;19.27;;
15096;SDS011;7649;52.084;7.478;2023-10-13T00:52:28;21.50;;;19.23;;
15096;SDS011;7649;52.084;7.478;2023-10-13T00:54:57;20.70;;;18.50;;
15096;SDS011;7649;52.084;7.478;2023-10-13T00:57:27;23.67;;;18.27;;
15096;SDS011;7649;52.084;7.478;2023-10-13T00:59:56;21.03;;;18.37;;
15096;SDS011;7649;52.084;7.478;2023-10-13T01:02:38;21.10;;;18.90;;
15096;SDS011;7649;52.084;7.478;2023-10-13T01:05:06;20.07;;;17.97;;
15096;SDS011;7649;52.084;7.478;2023-10-13T01:07:36;21.53;;;18.90;;
15096;SDS011;7649;52.084;7.478;2023-10-13T01:10:09;22.03;;;18.93;;
15096;SDS011;7649;52.084;7.478;2023-10-13T01:12:41;20.07;;;17.90;;
15096;SDS011;7649;52.084;7.478;2023-10-13T01:15:09;19.87;;;17.30;;
15096;SDS011;7649;52.084;7.478;2023-10-13T01:17:38;20.90;;;17.17;;
15096;SDS011;7649;52.084;7.478;2023-10-13T01:20:06;19.93;;;17.93;;
15096;SDS011;7649;52.084;7.478;2023-10-13T01:22:37;19.67;;;17.07;;
15096;SDS011;7649;52.084;7.478;2023-10-13T01:25:06;19.30;;;17.30;;
15096;SDS011;7649;52.084;7.478;2023-10-13T01:27:39;19.23;;;17.17;;
15096;SDS011;7649;52.084;7.478;2023-10-13T01:30:08;18.63;;;16.53;;
15096;SDS011;7649;52.084;7.478;2023-10-13T01:32:39;21.50;;;16.93;;
15096;SDS011;7649;52.084;7.478;2023-10-13T01:35:11;17.90;;;16.03;;
15096;SDS011;7649;52.084;7.478;2023-10-13T01:37:39;21.53;;;17.37;;
15096;SDS011;7649;52.084;7.478;2023-10-13T01:40:12;19.10;;;15.67;;
15096;SDS011;7649;52.084;7.478;2023-10-13T01:42:45;21.20;;;16.13;;
15096;SDS011;7649;52.084;7.478;2023-10-13T01:45:13;16.87;;;15.07;;
15096;SDS011;7649;52.084;7.478;2023-10-13T01:47:45;17.40;;;14.70;;
15096;SDS011;7649;52.084;7.478;2023-10-13T01:50:17;19.73;;;14.83;;
15096;SDS011;7649;52.084;7.478;2023-10-13T01:52:47;19.23;;;14.93;;
15096;SDS011;7649;52.084;7.478;2023-10-13T01:55:16;16.97;;;14.87;;
15096;SDS011;7649;52.084;7.478;2023-10-13T01:57:46;17.47;;;14.70;;
15096;SDS011;7649;52.084;7.478;2023-10-13T02:00:14;19.10;;;14.47;;
15096;SDS011;7649;52.084;7.478;2023-10-13T02:02:46;18.30;;;15.00;;
15096;SDS011;7649;52.084;7.478;2023-10-13T02:05:16;16.37;;;14.60;;
15096;SDS011;7649;52.084;7.478;2023-10-13T02:07:44;18.70;;;15.03;;
15096;SDS011;7649;52.084;7.478;2023-10-13T02:10:13;15.47;;;13.87;;
15096;SDS011;7649;52.084;7.478;2023-10-13T02:12:41;17.00;;;15.30;;
15096;SDS011;7649;52.084;7.478;2023-10-13T02:15:10;18.23;;;15.33;;
15096;SDS011;7649;52.084;7.478;2023-10-13T02:17:39;18.20;;;14.30;;
15096;SDS011;7649;52.084;7.478;2023-10-13T02:20:08;16.47;;;13.70;;
15096;SDS011;7649;52.084;7.478;2023-10-13T02:22:41;17.07;;;14.50;;
15096;SDS011;7649;52.084;7.478;2023-10-13T02:25:15;15.43;;;13.80;;
15096;SDS011;7649;52.084;7.478;2023-10-13T02:27:55;17.17;;;13.40;;
15096;SDS011;7649;52.084;7.478;2023-10-13T02:30:25;16.20;;;14.20;;
15096;SDS011;7649;52.084;7.478;2023-10-13T02:32:55;14.47;;;12.60;;
15096;SDS011;7649;52.084;7.478;2023-10-13T02:35:30;16.70;;;13.70;;
15096;SDS011;7649;52.084;7.478;2023-10-13T02:38:07;17.00;;;13.70;;
15096;SDS011;7649;52.084;7.478;2023-10-13T02:40:38;14.97;;;13.37;;
15096;SDS011;7649;52.084;7.478;2023-10-13T02:43:07;13.83;;;12.43;;
15096;SDS011;7649;52.084;7.478;2023-10-13T02:45:37;15.30;;;13.63;;
15096;SDS011;7649;52.084;7.478;2023-10-13T02:48:08;14.53;;;13.00;;
15096;SDS011;7649;52.084;7.478;2023-10-13T02:50:41;18.60;;;13.40;;
15096;SDS011;7649;52.084;7.478;2023-10-13T02:53:12;13.50;;;12.17;;
15096;SDS011;7649;52.084;7.478;2023-10-13T02:55:48;14.13;;;11.80;;
15096;SDS011;7649;52.084;7.478;2023-10-13T02:58:18;14.47;;;12.27;;
15096;SDS011;7649;52.084;7.478;2023-10-13T03:00:47;14.77;;;11.13;;
15096;SDS011;7649;52.084;7.478;2023-10-13T03:03:16;15.73;;;11.47;;
15096;SDS011;7649;52.084;7.478;2023-10-13T03:05:46;15.23;;;11.53;;
15096;SDS011;7649;52.084;7.478;2023-10-13T03:08:15;14.40;;;11.83;;
15096;SDS011;7649;52.084;7.478;2023-10-13T03:10:52;15.40;;;12.57;;
15096;SDS011;7649;52.084;7.478;2023-10-13T03:13:23;14.57;;;12.27;;
15096;SDS011;7649;52.084;7.478;2023-10-13T03:15:50;19.37;;;12.53;;
15096;SDS011;7649;52.084;7.478;2023-10-13T03:18:21;15.17;;;11.50;;
15096;SDS011;7649;52.084;7.478;2023-10-13T03:20:48;17.90;;;11.97;;
15096;SDS011;7649;52.084;7.478;2023-10-13T03:23:23;15.20;;;11.80;;
15096;SDS011;7649;52.084;7.478;2023-10-13T03:25:50;13.33;;;11.57;;
15096;SDS011;7649;52.084;7.478;2023-10-13T03:28:23;12.20;;;10.80;;
15096;SDS011;7649;52.084;7.478;2023-10-13T03:30:53;15.23;;;11.53;;
15096;SDS011;7649;52.084;7.478;2023-10-13T03:33:27;15.90;;;11.80;;
15096;SDS011;7649;52.084;7.478;2023-10-13T03:35:59;16.27;;;12.10;;
15096;SDS011;7649;52.084;7.478;2023-10-13T03:38:32;12.63;;;11.33;;
15096;SDS011;7649;52.084;7.478;2023-10-13T03:41:05;15.93;;;11.53;;
15096;SDS011;7649;52.084;7.478;2023-10-13T03:43:46;13.07;;;10.77;;
15096;SDS011;7649;52.084;7.478;2023-10-13T03:46:18;12.23;;;10.93;;
15096;SDS011;7649;52.084;7.478;2023-10-13T03:48:49;14.40;;;10.80;;
15096;SDS011;7649;52.084;7.478;2023-10-13T03:51:21;11.97;;;10.33;;
15096;SDS011;7649;52.084;7.478;2023-10-13T03:53:57;12.63;;;10.37;;
15096;SDS011;7649;52.084;7.478;2023-10-13T03:56:33;12.90;;;10.37;;
15096;SDS011;7649;52.084;7.478;2023-10-13T03:59:09;13.17;;;10.40;;
15096;SDS011;7649;52.084;7.478;2023-10-13T04:01:46;12.37;;;11.03;;
15096;SDS011;7649;52.084;7.478;2023-10-13T04:04:25;14.77;;;10.43;;
15096;SDS011;7649;52.084;7.478;2023-10-13T04:07:11;14.27;;;10.37;;
15096;SDS011;7649;52.084;7.478;2023-10-13T04:09:57;14.20;;;10.73;;
15096;SDS011;7649;52.084;7.478;2023-10-13T04:12:43;11.43;;;10.20;;
15096;SDS011;7649;52.084;7.478;2023-10-13T04:15:31;12.40;;;10.80;;
15096;SDS011;7649;52.084;7.478;2023-10-13T04:18:08;14.87;;;11.73;;
15096;SDS011;7649;52.084;7.478;2023-10-13T04:20:56;13.03;;;11.73;;
15096;SDS011;7649;52.084;7.478;2023-10-13T04:23:45;13.13;;;11.73;;
15096;SDS011;7649;52.084;7.478;2023-10-13T04:26:50;14.07;;;12.23;;
15096;SDS011;7649;52.084;7.478;2023-10-13T04:29:36;13.10;;;11.80;;
15096;SDS011;7649;52.084;7.478;2023-10-13T04:32:19;14.83;;;12.53;;
15096;SDS011;7649;52.084;7.478;2023-10-13T04:34:55;17.83;;;13.27;;
15096;SDS011;7649;52.084;7.478;2023-10-13T04:37:34;19.33;;;15.10;;
15096;SDS011;7649;52.084;7.478;2023-10-13T04:40:17;17.90;;;14.57;;
15096;SDS011;7649;52.084;7.478;2023-10-13T04:42:51;17.50;;;15.77;;
15096;SDS011;7649;52.084;7.478;2023-10-13T04:45:24;19.20;;;17.20;;
15096;SDS011;7649;52.084;7.478;2023-10-13T04:48:06;17.50;;;15.70;;
15096;SDS011;7649;52.084;7.478;2023-10-13T04:50:44;17.87;;;15.97;;
15096;SDS011;7649;52.084;7.478;2023-10-13T04:53:13;20.23;;;15.83;;
15096;SDS011;7649;52.084;7.478;2023-10-13T04:55:54;17.17;;;15.43;;
15096;SDS011;7649;52.084;7.478;2023-10-13T04:58:43;17.60;;;15.87;;
15096;SDS011;7649;52.084;7.478;2023-10-13T05:01:28;16.90;;;14.80;;
15096;SDS011;7649;52.084;7.478;2023-10-13T05:04:17;16.13;;;14.73;;
15096;SDS011;7649;52.084;7.478;2023-10-13T05:07:05;16.97;;;15.37;;
15096;SDS011;7649;52.084;7.478;2023-10-13T05:09:51;16.87;;;14.97;;
15096;SDS011;7649;52.084;7.478;2023-10-13T05:12:37;14.17;;;12.67;;
15096;SDS011;7649;52.084;7.478;2023-10-13T05:15:24;15.10;;;13.57;;
15096;SDS011;7649;52.084;7.478;2023-10-13T05:18:10;14.80;;;13.30;;
15096;SDS011;7649;52.084;7.478;2023-10-13T05:21:03;16.07;;;13.53;;
15096;SDS011;7649;52.084;7.478;2023-10-13T05:23:49;13.87;;;12.30;;
15096;SDS011;7649;52.084;7.478;2023-10-13T05:26:35;13.23;;;11.63;;
15096;SDS011;7649;52.084;7.478;2023-10-13T05:29:21;12.37;;;10.30;;
15096;SDS011;7649;52.084;7.478;2023-10-13T05:32:07;12.23;;;10.10;;
15096;SDS011;7649;52.084;7.478;2023-10-13T05:34:53;11.73;;;9.70;;
15096;SDS011;7649;52.084;7.478;2023-10-13T05:37:41;10.83;;;9.60;;
15096;SDS011;7649;52.084;7.478;2023-10-13T05:40:27;11.20;;;10.10;;
15096;SDS011;7649;52.084;7.478;2023-10-13T05:43:13;11.93;;;9.80;;
15096;SDS011;7649;52.084;7.478;2023-10-13T05:46:07;11.57;;;9.80;;
15096;SDS011;7649;52.084;7.478;2023-10-13T05:49:15;11.83;;;10.40;;
15096;SDS011;7649;52.084;7.478;2023-10-13T05:52:01;14.23;;;11.57;;
15096;SDS011;7649;52.084;7.478;2023-10-13T05:54:47;14.43;;;10.70;;
15096;SDS011;7649;52.084;7.478;2023-10-13T05:57:32;13.30;;;11.07;;
15096;SDS011;7649;52.084;7.478;2023-10-13T06:00:19;15.77;;;12.97;;
15096;SDS011;7649;52.084;7.478;2023-10-13T06:03:05;22.87;;;14.90;;
15096;SDS011;7649;52.084;7.478;2023-10-13T06:05:50;16.00;;;14.40;;
15096;SDS011;7649;52.084;7.478;2023-10-13T06:08:37;24.73;;;19.90;;
15096;SDS011;7649;52.084;7.478;2023-10-13T06:11:24;19.20;;;17.37;;
15096;SDS011;7649;52.084;7.478;2023-10-13T06:14:10;19.70;;;17.67;;
15096;SDS011;7649;52.084;7.478;2023-10-13T06:16:56;20.83;;;18.30;;
15096;SDS011;7649;52.084;7.478;2023-10-13T06:19:42;20.30;;;18.27;;
15096;SDS011;7649;52.084;7.478;2023-10-13T06:22:28;21.57;;;19.27;;
15096;SDS011;7649;52.084;7.478;2023-10-13T06:25:14;20.87;;;17.60;;
15096;SDS011;7649;52.084;7.478;2023-10-13T06:28:02;23.73;;;20.43;;
15096;SDS011;7649;52.084;7.478;2023-10-13T06:30:56;18.83;;;16.50;;
15096;SDS011;7649;52.084;7.478;2023-10-13T06:33:25;18.20;;;16.27;;
15096;SDS011;7649;52.084;7.478;2023-10-13T06:35:56;17.27;;;15.50;;
15096;SDS011;7649;52.084;7.478;2023-10-13T06:38:25;16.37;;;14.87;;
15096;SDS011;7649;52.084;7.478;2023-10-13T06:40:57;14.40;;;13.00;;
15096;SDS011;7649;52.084;7.478;2023-10-13T06:43:33;14.63;;;13.23;;
15096;SDS011;7649;52.084;7.478;2023-10-13T06:46:09;12.80;;;11.63;;
15096;SDS011;7649;52.084;7.478;2023-10-13T06:48:41;13.00;;;11.37;;
15096;SDS011;7649;52.084;7.478;2023-10-13T06:51:10;12.13;;;10.93;;
15096;SDS011;7649;52.084;7.478;2023-10-13T06:53:44;12.33;;;11.13;;
15096;SDS011;7649;52.084;7.478;2023-10-13T06:56:14;11.73;;;10.63;;
15096;SDS011;7649;52.084;7.478;2023-10-13T06:58:49;13.17;;;12.00;;
15096;SDS011;7649;52.084;7.478;2023-10-13T07:01:19;12.60;;;11.50;;
15096;SDS011;7649;52.084;7.478;2023-10-13T07:03:49;11.63;;;10.53;;
15096;SDS011;7649;52.084;7.478;2023-10-13T07:06:21;13.30;;;10.57;;
15096;SDS011;7649;52.084;7.478;2023-10-13T07:08:49;11.87;;;10.77;;
15096;SDS011;7649;52.084;7.478;2023-10-13T07:11:24;11.37;;;10.03;;
15096;SDS011;7649;52.084;7.478;2023-10-13T07:14:02;10.37;;;9.37;;
15096;SDS011;7649;52.084;7.478;2023-10-13T07:16:42;10.13;;;9.13;;
15096;SDS011;7649;52.084;7.478;2023-10-13T07:19:13;10.00;;;9.10;;
15096;SDS011;7649;52.084;7.478;2023-10-13T07:21:47;9.20;;;8.37;;
15096;SDS011;7649;52.084;7.478;2023-10-13T07:24:24;9.50;;;7.93;;
15096;SDS011;7649;52.084;7.478;2023-10-13T07:26:53;9.25;;;7.70;;
15096;SDS011;7649;52.084;7.478;2023-10-13T07:29:31;8.25;;;7.45;;
15096;SDS011;7649;52.084;7.478;2023-10-13T07:32:02;8.37;;;6.93;;
15096;SDS011;7649;52.084;7.478;2023-10-13T07:34:36;10.83;;;7.23;;
15096;SDS011;7649;52.084;7.478;2023-10-13T07:37:06;8.33;;;7.37;;
15096;SDS011;7649;52.084;7.478;2023-10-13T07:39:42;8.02;;;7.20;;
15096;SDS011;7649;52.084;7.478;2023-10-13T07:42:11;11.27;;;8.27;;
15096;SDS011;7649;52.084;7.478;2023-10-13T07:44:47;9.23;;;7.80;;
15096;SDS011;7649;52.084;7.478;2023-10-13T07:47:15;9.50;;;8.50;;
15096;SDS011;7649;52.084;7.478;2023-10-13T07:49:47;9.48;;;8.57;;
15096;SDS011;7649;52.084;7.478;2023-10-13T07:52:17;10.23;;;8.37;;
15096;SDS011;7649;52.084;7.478;2023-10-13T07:54:57;10.35;;;9.32;;
15096;SDS011;7649;52.084;7.478;2023-10-13T07:57:39;10.48;;;8.93;;
15096;SDS011;7649;52.084;7.478;2023-10-13T08:00:25;10.97;;;9.83;;
15096;SDS011;7649;52.084;7.478;2023-10-13T08:03:13;9.45;;;8.65;;
15096;SDS011;7649;52.084;7.478;2023-10-13T08:06:12;10.40;;;9.40;;
15096;SDS011;7649;52.084;7.478;2023-10-13T08:08:48;11.43;;;10.23;;
15096;SDS011;7649;52.084;7.478;2023-10-13T08:11:34;11.77;;;10.73;;
15096;SDS011;7649;52.084;7.478;2023-10-13T08:14:04;13.10;;;11.60;;
15096;SDS011;7649;52.084;7.478;2023-10-13T08:17:08;12.90;;;11.52;;
15096;SDS011;7649;52.084;7.478;2023-10-13T08:19:38;14.55;;;11.50;;
15096;SDS011;7649;52.084;7.478;2023-10-13T08:22:16;12.07;;;10.93;;
15096;SDS011;7649;52.084;7.478;2023-10-13T08:25:02;12.15;;;10.95;;
15096;SDS011;7649;52.084;7.478;2023-10-13T08:27:51;13.90;;;10.65;;
15096;SDS011;7649;52.084;7.478;2023-10-13T08:30:49;14.25;;;9.43;;
15096;SDS011;7649;52.084;7.478;2023-10-13T08:33:24;13.45;;;8.88;;
15096;SDS011;7649;52.084;7.478;2023-10-13T08:35:54;12.70;;;8.10;;
15096;SDS011;7649;52.084;7.478;2023-10-13T08:38:32;14.82;;;7.85;;
15096;SDS011;7649;52.084;7.478;2023-10-13T08:41:17;11.90;;;7.28;;
15096;SDS011;7649;52.084;7.478;2023-10-13T08:44:20;15.07;;;7.63;;
15096;SDS011;7649;52.084;7.478;2023-10-13T08:47:11;15.55;;;6.82;;
15096;SDS011;7649;52.084;7.478;2023-10-13T08:49:45;10.60;;;7.00;;
15096;SDS011;7649;52.084;7.478;2023-10-13T08:52:18;15.00;;;7.13;;
15096;SDS011;7649;52.084;7.478;2023-10-13T08:55:14;14.27;;;7.13;;
15096;SDS011;7649;52.084;7.478;2023-10-13T08:58:29;16.17;;;6.05;;
15096;SDS011;7649;52.084;7.478;2023-10-13T09:01:27;14.35;;;6.40;;
15096;SDS011;7649;52.084;7.478;2023-10-13T09:04:02;10.35;;;6.05;;
15096;SDS011;7649;52.084;7.478;2023-10-13T09:06:46;13.05;;;6.00;;
15096;SDS011;7649;52.084;7.478;2023-10-13T09:09:27;10.80;;;5.82;;
15096;SDS011;7649;52.084;7.478;2023-10-13T09:12:01;13.43;;;6.38;;
15096;SDS011;7649;52.084;7.478;2023-10-13T09:14:37;11.25;;;6.57;;
15096;SDS011;7649;52.084;7.478;2023-10-13T09:17:09;10.90;;;5.50;;
15096;SDS011;7649;52.084;7.478;2023-10-13T09:19:45;11.63;;;5.97;;
15096;SDS011;7649;52.084;7.478;2023-10-13T09:22:22;11.45;;;5.93;;
15096;SDS011;7649;52.084;7.478;2023-10-13T09:24:55;11.18;;;5.30;;
15096;SDS011;7649;52.084;7.478;2023-10-13T09:27:25;10.85;;;5.32;;
15096;SDS011;7649;52.084;7.478;2023-10-13T09:29:56;10.75;;;5.57;;
15096;SDS011;7649;52.084;7.478;2023-10-13T09:32:23;9.82;;;5.47;;
15096;SDS011;7649;52.084;7.478;2023-10-13T09:34:59;8.63;;;5.80;;
15096;SDS011;7649;52.084;7.478;2023-10-13T09:37:27;12.27;;;5.40;;
15096;SDS011;7649;52.084;7.478;2023-10-13T09:39:59;12.07;;;4.93;;
15096;SDS011;7649;52.084;7.478;2023-10-13T09:42:32;12.23;;;5.35;;
15096;SDS011;7649;52.084;7.478;2023-10-13T09:45:03;9.38;;;5.28;;
15096;SDS011;7649;52.084;7.478;2023-10-13T09:47:31;14.18;;;5.30;;
15096;SDS011;7649;52.084;7.478;2023-10-13T09:50:04;9.48;;;4.72;;
15096;SDS011;7649;52.084;7.478;2023-10-13T09:52:41;9.90;;;4.85;;
15096;SDS011;7649;52.084;7.478;2023-10-13T09:55:13;11.18;;;4.95;;
15096;SDS011;7649;52.084;7.478;2023-10-13T09:57:50;13.82;;;5.45;;
15096;SDS011;7649;52.084;7.478;2023-10-13T10:00:26;12.75;;;5.03;;
15096;SDS011;7649;52.084;7.478;2023-10-13T10:03:15;9.27;;;5.32;;
15096;SDS011;7649;52.084;7.478;2023-10-13T10:06:05;13.73;;;5.38;;
15096;SDS011;7649;52.084;7.478;2023-10-13T10:08:42;13.73;;;5.03;;
15096;SDS011;7649;52.084;7.478;2023-10-13T10:11:26;21.38;;;5.35;;
15096;SDS011;7649;52.084;7.478;2023-10-13T10:14:09;11.15;;;5.53;;
15096;SDS011;7649;52.084;7.478;2023-10-13T10:16:43;7.88;;;5.13;;
15096;SDS011;7649;52.084;7.478;2023-10-13T10:19:15;10.75;;;5.80;;
15096;SDS011;7649;52.084;7.478;2023-10-13T10:21:45;11.70;;;5.05;;
15096;SDS011;7649;52.084;7.478;2023-10-13T10:24:15;10.25;;;5.30;;
15096;SDS011;7649;52.084;7.478;2023-10-13T10:26:52;12.75;;;5.75;;
15096;SDS011;7649;52.084;7.478;2023-10-13T10:29:20;10.05;;;5.57;;
15096;SDS011;7649;52.084;7.478;2023-10-13T10:31:51;13.10;;;5.28;;
15096;SDS011;7649;52.084;7.478;2023-10-13T10:34:20;10.73;;;5.43;;
15096;SDS011;7649;52.084;7.478;2023-10-13T10:36:59;10.00;;;5.78;;
15096;SDS011;7649;52.084;7.478;2023-10-13T10:39:33;10.95;;;5.40;;
15096;SDS011;7649;52.084;7.478;2023-10-13T10:42:11;15.27;;;5.80;;
15096;SDS011;7649;52.084;7.478;2023-10-13T10:44:45;13.73;;;5.55;;
15096;SDS011;7649;52.084;7.478;2023-10-13T10:47:16;11.90;;;5.55;;
15096;SDS011;7649;52.084;7.478;2023-10-13T10:49:57;13.15;;;5.95;;
15096;SDS011;7649;52.084;7.478;2023-10-13T10:52:27;9.80;;;5.72;;
15096;SDS011;7649;52.084;7.478;2023-10-13T10:55:03;12.23;;;5.28;;
15096;SDS011;7649;52.084;7.478;2023-10-13T10:57:34;14.05;;;5.45;;
15096;SDS011;7649;52.084;7.478;2023-10-13T11:00:07;13.73;;;5.30;;
15096;SDS011;7649;52.084;7.478;2023-10-13T11:02:54;8.60;;;5.32;;
15096;SDS011;7649;52.084;7.478;2023-10-13T11:05:23;8.55;;;5.15;;
15096;SDS011;7649;52.084;7.478;2023-10-13T11:07:59;8.75;;;5.30;;
15096;SDS011;7649;52.084;7.478;2023-10-13T11:10:29;10.52;;;5.50;;
15096;SDS011;7649;52.084;7.478;2023-10-13T11:13:05;16.63;;;5.68;;
15096;SDS011;7649;52.084;7.478;2023-10-13T11:15:43;12.45;;;5.85;;
15096;SDS011;7649;52.084;7.478;2023-10-13T11:18:14;12.90;;;5.45;;
15096;SDS011;7649;52.084;7.478;2023-10-13T11:20:45;16.58;;;6.18;;
15096;SDS011;7649;52.084;7.478;2023-10-13T11:23:16;14.05;;;6.00;;
15096;SDS011;7649;52.084;7.478;2023-10-13T11:25:56;12.73;;;5.57;;
15096;SDS011;7649;52.084;7.478;2023-10-13T11:28:25;11.23;;;5.40;;
15096;SDS011;7649;52.084;7.478;2023-10-13T11:30:55;8.50;;;5.13;;
15096;SDS011;7649;52.084;7.478;2023-10-13T11:33:27;12.15;;;5.78;;
15096;SDS011;7649;52.084;7.478;2023-10-13T11:35:56;10.05;;;5.28;;
15096;SDS011;7649;52.084;7.478;2023-10-13T11:38:29;14.07;;;5.22;;
15096;SDS011;7649;52.084;7.478;2023-10-13T11:41:09;11.57;;;5.97;;
15096;SDS011;7649;52.084;7.478;2023-10-13T11:43:41;12.30;;;6.10;;
15096;SDS011;7649;52.084;7.478;2023-10-13T11:46:27;18.13;;;6.38;;
15096;SDS011;7649;52.084;7.478;2023-10-13T11:49:15;13.55;;;6.00;;
15096;SDS011;7649;52.084;7.478;2023-10-13T11:51:59;15.75;;;5.60;;
15096;SDS011;7649;52.084;7.478;2023-10-13T11:54:43;12.73;;;6.35;;
15096;SDS011;7649;52.084;7.478;2023-10-13T11:57:14;11.35;;;5.63;;
15096;SDS011;7649;52.084;7.478;2023-10-13T11:59:46;11.25;;;6.05;;
15096;SDS011;7649;52.084;7.478;2023-10-13T12:02:24;11.80;;;6.00;;
15096;SDS011;7649;52.084;7.478;2023-10-13T12:05:12;13.90;;;5.88;;
15096;SDS011;7649;52.084;7.478;2023-10-13T12:07:44;17.13;;;6.55;;
15096;SDS011;7649;52.084;7.478;2023-10-13T12:10:19;10.23;;;6.10;;
15096;SDS011;7649;52.084;7.478;2023-10-13T12:13:15;18.65;;;6.20;;
15096;SDS011;7649;52.084;7.478;2023-10-13T12:15:44;16.67;;;6.47;;
15096;SDS011;7649;52.084;7.478;2023-10-13T12:18:18;16.70;;;6.57;;
15096;SDS011;7649;52.084;7.478;2023-10-13T12:20:51;14.18;;;6.13;;
15096;SDS011;7649;52.084;7.478;2023-10-13T12:23:19;10.35;;;5.93;;
15096;SDS011;7649;52.084;7.478;2023-10-13T12:25:57;12.13;;;6.18;;
15096;SDS011;7649;52.084;7.478;2023-10-13T12:28:27;17.02;;;6.68;;
15096;SDS011;7649;52.084;7.478;2023-10-13T12:31:02;11.07;;;6.18;;
15096;SDS011;7649;52.084;7.478;2023-10-13T12:33:33;13.18;;;6.30;;
15096;SDS011;7649;52.084;7.478;2023-10-13T12:36:08;15.05;;;6.22;;
15096;SDS011;7649;52.084;7.478;2023-10-13T12:38:42;8.73;;;5.55;;
15096;SDS011;7649;52.084;7.478;2023-10-13T12:41:42;12.65;;;6.22;;
15096;SDS011;7649;52.084;7.478;2023-10-13T12:44:28;14.73;;;6.82;;
15096;SDS011;7649;52.084;7.478;2023-10-13T12:47:16;15.52;;;6.10;;
15096;SDS011;7649;52.084;7.478;2023-10-13T12:50:02;14.18;;;6.40;;
15096;SDS011;7649;52.084;7.478;2023-10-13T12:52:51;14.27;;;5.90;;
15096;SDS011;7649;52.084;7.478;2023-10-13T12:55:19;16.42;;;6.63;;
15096;SDS011;7649;52.084;7.478;2023-10-13T12:57:51;12.50;;;5.82;;
15096;SDS011;7649;52.084;7.478;2023-10-13T13:00:21;13.90;;;6.72;;
15096;SDS011;7649;52.084;7.478;2023-10-13T13:03:00;11.65;;;6.57;;
15096;SDS011;7649;52.084;7.478;2023-10-13T13:05:37;19.45;;;6.38;;
15096;SDS011;7649;52.084;7.478;2023-10-13T13:08:12;8.93;;;6.13;;
15096;SDS011;7649;52.084;7.478;2023-10-13T13:10:49;16.35;;;6.43;;
15096;SDS011;7649;52.084;7.478;2023-10-13T13:13:19;13.05;;;6.10;;
15096;SDS011;7649;52.084;7.478;2023-10-13T13:15:52;13.90;;;6.75;;
15096;SDS011;7649;52.084;7.478;2023-10-13T13:18:20;12.15;;;6.05;;
15096;SDS011;7649;52.084;7.478;2023-10-13T13:20:49;13.27;;;6.88;;
15096;SDS011;7649;52.084;7.478;2023-10-13T13:23:24;15.45;;;6.22;;
15096;SDS011;7649;52.084;7.478;2023-10-13T13:25:54;16.52;;;6.25;;
15096;SDS011;7649;52.084;7.478;2023-10-13T13:28:29;14.70;;;6.68;;
15096;SDS011;7649;52.084;7.478;2023-10-13T13:31:04;15.50;;;6.50;;
15096;SDS011;7649;52.084;7.478;2023-10-13T13:33:34;10.82;;;6.63;;
15096;SDS011;7649;52.084;7.478;2023-10-13T13:36:05;17.95;;;6.65;;
15096;SDS011;7649;52.084;7.478;2023-10-13T13:38:44;15.27;;;7.47;;
15096;SDS011;7649;52.084;7.478;2023-10-13T13:41:15;15.63;;;6.95;;
15096;SDS011;7649;52.084;7.478;2023-10-13T13:43:44;14.65;;;6.30;;
15096;SDS011;7649;52.084;7.478;2023-10-13T13:46:22;19.25;;;7.13;;
15096;SDS011;7649;52.084;7.478;2023-10-13T13:48:54;19.27;;;6.97;;
15096;SDS011;7649;52.084;7.478;2023-10-13T13:51:26;17.13;;;6.35;;
15096;SDS011;7649;52.084;7.478;2023-10-13T13:53:56;18.45;;;6.78;;
15096;SDS011;7649;52.084;7.478;2023-10-13T13:56:30;17.95;;;6.88;;
15096;SDS011;7649;52.084;7.478;2023-10-13T13:59:04;20.02;;;7.28;;
15096;SDS011;7649;52.084;7.478;2023-10-13T14:01:35;16.85;;;6.68;;
15096;SDS011;7649;52.084;7.478;2023-10-13T14:04:07;16.73;;;6.45;;
15096;SDS011;7649;52.084;7.478;2023-10-13T14:06:35;17.50;;;6.47;;
15096;SDS011;7649;52.084;7.478;2023-10-13T14:09:06;16.85;;;6.13;;
15096;SDS011;7649;52.084;7.478;2023-10-13T14:11:42;19.48;;;6.55;;
15096;SDS011;7649;52.084;7.478;2023-10-13T14:14:28;13.73;;;5.85;;
15096;SDS011;7649;52.084;7.478;2023-10-13T14:17:00;13.60;;;6.28;;
15096;SDS011;7649;52.084;7.478;2023-10-13T14:19:34;16.08;;;6.10;;
15096;SDS011;7649;52.084;7.478;2023-10-13T14:22:07;13.70;;;5.63;;
15096;SDS011;7649;52.084;7.478;2023-10-13T14:24:41;21.63;;;6.10;;
15096;SDS011;7649;52.084;7.478;2023-10-13T14:27:14;15.98;;;6.13;;
15096;SDS011;7649;52.084;7.478;2023-10-13T14:29:46;16.48;;;5.53;;
15096;SDS011;7649;52.084;7.478;2023-10-13T14:32:19;16.92;;;6.15;;
15096;SDS011;7649;52.084;7.478;2023-10-13T14:34:51;21.73;;;5.90;;
15096;SDS011;7649;52.084;7.478;2023-10-13T14:37:23;17.95;;;6.10;;
15096;SDS011;7649;52.084;7.478;2023-10-13T14:39:59;21.00;;;6.05;;
15096;SDS011;7649;52.084;7.478;2023-10-13T14:42:28;13.95;;;5.65;;
15096;SDS011;7649;52.084;7.478;2023-10-13T14:45:02;15.98;;;5.68;;
15096;SDS011;7649;52.084;7.478;2023-10-13T14:47:38;17.20;;;5.70;;
15096;SDS011;7649;52.084;7.478;2023-10-13T14:50:08;16.35;;;6.00;;
15096;SDS011;7649;52.084;7.478;2023-10-13T14:52:46;16.10;;;6.05;;
15096;SDS011;7649;52.084;7.478;2023-10-13T14:55:16;14.98;;;6.00;;
15096;SDS011;7649;52.084;7.478;2023-10-13T14:57:59;17.50;;;5.57;;
15096;SDS011;7649;52.084;7.478;2023-10-13T15:00:30;15.45;;;5.20;;
15096;SDS011;7649;52.084;7.478;2023-10-13T15:02:59;15.48;;;5.45;;
15096;SDS011;7649;52.084;7.478;2023-10-13T15:05:28;16.70;;;5.90;;
15096;SDS011;7649;52.084;7.478;2023-10-13T15:07:58;13.85;;;5.28;;
15096;SDS011;7649;52.084;7.478;2023-10-13T15:10:27;13.98;;;5.45;;
15096;SDS011;7649;52.084;7.478;2023-10-13T15:12:56;13.70;;;5.95;;
15096;SDS011;7649;52.084;7.478;2023-10-13T15:15:26;15.25;;;5.63;;
15096;SDS011;7649;52.084;7.478;2023-10-13T15:17:59;12.38;;;5.70;;
15096;SDS011;7649;52.084;7.478;2023-10-13T15:20:27;11.45;;;5.25;;
15096;SDS011;7649;52.084;7.478;2023-10-13T15:22:58;17.65;;;6.13;;
15096;SDS011;7649;52.084;7.478;2023-10-13T15:25:32;12.15;;;5.18;;
15096;SDS011;7649;52.084;7.478;2023-10-13T15:28:07;17.42;;;5.40;;
15096;SDS011;7649;52.084;7.478;2023-10-13T15:30:36;12.60;;;5.60;;
15096;SDS011;7649;52.084;7.478;2023-10-13T15:33:18;16.55;;;5.82;;
15096;SDS011;7649;52.084;7.478;2023-10-13T15:35:47;13.13;;;5.30;;